Hubbard, Nebraska
Current Conditions -  °F | °C
As of 5:52 PM on Thursday 18 Dec 2014 (Local Time) from KSUX Reporting Station
Overcast Overcast  
Wind Chill: 23°   Ceiling: 1600
Heat Index: 30°   Visibility: 8mi
Dew Point: 25°   Wind: 7mph
Humidity: 82%   Direction: 160°SSE
Pressure: 30.21"   Gusts: NA
Location:  42.39°N, 96.59°W
Report Text: KSUX 182352Z AUTO 16006KT 8SM OVC016 M01/M04 A3021 RMK AO2 SLP244 T10111039 11006 21022 51005
Loading
Personal Weather Stations






























Interactive Weather Map New forecast layout! Learn more

10-Day Weather Forecast

Advertisements
Track Severe Weather on mobile